Time;durP1;ratioP1;P1;durP2;ratioP2;P2;SDS_P1;SDS_P2;PMS_P1;PMS_P2;Temp;Humidity;BMP_temperature;BMP_pressure;BME280_temperature;BME280_humidity;BME280_pressure;Samples;Min_cycle;Max_cycle;Signal;HPM_P1;HPM_P2
2023/05/14 00:01:02;;;;;;;8.17;6.80;;;;;;;11.91;71.64;101225.88;5086326;28;20207;-72
2023/05/14 00:03:29;;;;;;;7.43;6.70;;;;;;;11.89;71.93;101219.78;5084920;28;20237;-72
2023/05/14 00:05:55;;;;;;;7.07;6.47;;;;;;;11.88;72.40;101223.41;5096474;28;20199;-73
2023/05/14 00:08:22;;;;;;;7.77;6.97;;;;;;;11.86;72.45;101217.28;5087132;28;20223;-72
2023/05/14 00:10:50;;;;;;;6.97;6.33;;;;;;;11.86;72.62;101227.97;5090618;28;20763;-72
2023/05/14 00:13:16;;;;;;;7.50;6.80;;;;;;;11.79;71.94;101231.03;5091044;28;20206;-72
2023/05/14 00:15:43;;;;;;;6.80;6.10;;;;;;;11.68;72.15;101235.22;5088003;28;20227;-72
2023/05/14 00:18:11;;;;;;;7.20;6.50;;;;;;;11.60;72.09;101229.47;5092141;28;20206;-72
2023/05/14 00:20:37;;;;;;;6.30;5.70;;;;;;;11.49;72.43;101224.75;5081814;28;20206;-72
2023/05/14 00:23:04;;;;;;;6.30;5.70;;;;;;;11.41;73.10;101216.34;5091381;28;20201;-72
2023/05/14 00:25:30;;;;;;;7.07;6.37;;;;;;;11.37;73.29;101214.81;5089368;28;20201;-72
2023/05/14 00:27:58;;;;;;;7.33;6.50;;;;;;;11.30;73.69;101218.75;5091533;28;20787;-72
2023/05/14 00:30:25;;;;;;;7.73;6.93;;;;;;;11.24;73.92;101211.13;5090168;28;20208;-72
2023/05/14 00:32:51;;;;;;;6.93;6.03;;;;;;;11.17;73.78;101207.09;5089239;28;20202;-72
2023/05/14 00:35:19;;;;;;;8.03;6.73;;;;;;;11.11;74.48;101210.94;5089586;28;20221;-72
2023/05/14 00:37:45;;;;;;;7.00;5.97;;;;;;;11.05;74.24;101203.31;5088920;28;20310;-72
2023/05/14 00:40:12;;;;;;;7.03;5.87;;;;;;;10.98;74.27;101208.13;5090039;28;20773;-72
2023/05/14 00:42:39;;;;;;;6.70;5.93;;;;;;;10.91;74.76;101200.56;5090462;28;21814;-72
2023/05/14 00:45:08;;;;;;;7.13;6.43;;;;;;;10.85;75.04;101200.91;5090078;28;20212;-72
2023/05/14 00:47:35;;;;;;;6.27;5.67;;;;;;;10.79;74.68;101202.09;5087440;28;20209;-72
2023/05/14 00:50:03;;;;;;;6.70;6.10;;;;;;;10.70;74.33;101199.97;5086605;28;20220;-72
2023/05/14 00:52:29;;;;;;;7.83;6.07;;;;;;;10.59;74.77;101200.53;5089818;28;20209;-72
2023/05/14 00:54:57;;;;;;;7.03;6.30;;;;;;;10.51;75.69;101197.44;5084803;28;20200;-72
2023/05/14 00:57:23;;;;;;;8.30;6.97;;;;;;;10.46;76.20;101198.63;5090653;28;20220;-73
2023/05/14 00:59:50;;;;;;;8.63;6.70;;;;;;;10.44;77.27;101202.22;5084558;28;20233;-72
2023/05/14 01:02:17;;;;;;;7.37;6.67;;;;;;;10.46;78.08;101201.28;5086074;28;20202;-72
2023/05/14 01:04:44;;;;;;;9.73;7.60;;;;;;;10.48;78.57;101202.06;5082543;28;20220;-72
2023/05/14 01:07:18;;;;;;;8.13;7.33;;;;;;;10.49;78.67;101199.31;5088236;28;20196;-72
2023/05/14 01:09:53;;;;;;;8.43;7.13;;;;;;;10.48;78.53;101205.59;5086456;28;20227;-72
2023/05/14 01:12:27;;;;;;;8.27;7.47;;;;;;;10.47;79.35;101206.53;5086269;28;20201;-72
2023/05/14 01:14:59;;;;;;;8.10;7.03;;;;;;;10.46;79.16;101203.94;5086597;28;20218;-72
2023/05/14 01:17:29;;;;;;;8.17;6.93;;;;;;;10.41;79.55;101204.19;5087241;28;20225;-72
2023/05/14 01:19:56;;;;;;;8.33;7.47;;;;;;;10.37;79.74;101198.19;5089527;28;20227;-72
2023/05/14 01:22:24;;;;;;;8.50;7.50;;;;;;;10.37;80.61;101203.50;5089322;28;21424;-72
2023/05/14 01:24:50;;;;;;;8.20;7.40;;;;;;;10.39;80.30;101201.59;5084564;28;20212;-72
2023/05/14 01:27:23;;;;;;;8.10;7.30;;;;;;;10.39;80.35;101198.94;5091387;28;20200;-72
2023/05/14 01:29:56;;;;;;;7.87;7.17;;;;;;;10.37;80.11;101195.53;5089707;28;20734;-72
2023/05/14 01:32:23;;;;;;;9.07;7.70;;;;;;;10.34;80.02;101190.38;5087441;28;20214;-72
2023/05/14 01:34:51;;;;;;;8.43;6.93;;;;;;;10.30;79.88;101193.25;5088507;28;20664;-72
2023/05/14 01:37:18;;;;;;;7.13;6.43;;;;;;;10.24;80.01;101191.78;5090521;28;20418;-72
2023/05/14 01:39:47;;;;;;;6.97;6.27;;;;;;;10.19;79.31;101190.31;5095147;22;20232;-72
2023/05/14 01:42:14;;;;;;;7.87;7.07;;;;;;;10.08;79.68;101191.69;5070456;28;20227;-71
2023/05/14 01:44:40;;;;;;;8.70;6.90;;;;;;;10.03;80.17;101193.72;5066805;28;20213;-71
2023/05/14 01:47:07;;;;;;;7.40;6.70;;;;;;;9.99;80.51;101192.19;5065821;28;20197;-70
2023/05/14 01:49:33;;;;;;;7.37;6.77;;;;;;;9.96;80.73;101191.50;5058437;28;20221;-73
2023/05/14 01:52:00;;;;;;;8.07;7.27;;;;;;;9.96;81.32;101194.16;5070064;28;20220;-71
2023/05/14 01:54:26;;;;;;;7.87;7.07;;;;;;;9.95;81.51;101187.97;5067653;28;20208;-69
2023/05/14 01:56:54;;;;;;;8.67;7.70;;;;;;;9.98;81.89;101186.97;5065591;28;20221;-72
2023/05/14 01:59:20;;;;;;;14.50;7.97;;;;;;;9.98;82.35;101187.81;5065875;28;20256;-70
2023/05/14 02:01:47;;;;;;;8.17;7.37;;;;;;;10.00;82.40;101191.25;5061349;28;20205;-72
2023/05/14 02:04:13;;;;;;;8.47;7.37;;;;;;;10.02;82.74;101188.53;5063954;28;20201;-72
2023/05/14 02:06:40;;;;;;;7.90;7.13;;;;;;;10.04;82.40;101181.28;5068210;28;20201;-72
2023/05/14 02:09:06;;;;;;;8.40;7.60;;;;;;;10.04;82.50;101186.63;5068624;28;20221;-73
2023/05/14 02:11:33;;;;;;;8.63;7.63;;;;;;;10.05;82.84;101178.56;5066718;28;20212;-72
2023/05/14 02:14:01;;;;;;;11.77;7.70;;;;;;;10.04;82.64;101184.81;5067668;28;20204;-72
2023/05/14 02:16:27;;;;;;;8.77;7.87;;;;;;;10.02;82.96;101183.19;5066439;28;20229;-69
2023/05/14 02:18:53;;;;;;;7.90;7.20;;;;;;;10.00;82.97;101180.63;5066514;28;20224;-71
2023/05/14 02:21:20;;;;;;;9.03;7.30;;;;;;;10.00;83.10;101182.41;5069687;28;20201;-71
2023/05/14 02:23:48;;;;;;;8.53;7.50;;;;;;;9.97;83.35;101180.78;5062378;28;20729;-71
2023/05/14 02:26:14;;;;;;;7.60;6.93;;;;;;;9.94;82.42;101180.94;5064085;28;20201;-71
2023/05/14 02:28:41;;;;;;;10.13;6.47;;;;;;;9.89;82.48;101185.63;5057695;28;20233;-72
2023/05/14 02:31:09;;;;;;;7.97;7.27;;;;;;;9.83;82.76;101177.13;5065862;28;20216;-71
2023/05/14 02:33:35;;;;;;;8.33;7.33;;;;;;;9.81;83.18;101179.00;5057908;28;20395;-71
2023/05/14 02:36:01;;;;;;;8.43;7.63;;;;;;;9.78;83.18;101174.69;5063022;28;20229;-73
2023/05/14 02:38:28;;;;;;;8.67;7.90;;;;;;;9.79;83.75;101176.41;5066526;28;20228;-71
2023/05/14 02:40:55;;;;;;;9.77;8.17;;;;;;;9.79;84.35;101175.53;5089033;28;20659;-72
2023/05/14 02:43:21;;;;;;;12.10;9.33;;;;;;;9.79;84.42;101164.91;5085286;28;20684;-69
2023/05/14 02:45:47;;;;;;;12.57;8.57;;;;;;;9.79;84.86;101170.22;5087187;28;20203;-72
2023/05/14 02:48:15;;;;;;;9.20;8.30;;;;;;;9.79;84.75;101168.44;5085421;28;20211;-71
2023/05/14 02:50:42;;;;;;;8.67;7.63;;;;;;;9.77;84.41;101172.09;5087125;28;20257;-71
2023/05/14 02:53:08;;;;;;;10.57;8.53;;;;;;;9.74;84.85;101168.66;5085431;28;20196;-69
2023/05/14 02:55:35;;;;;;;7.30;6.60;;;;;;;9.70;84.51;101169.75;5081508;28;20197;-73
2023/05/14 02:58:01;;;;;;;7.20;6.50;;;;;;;9.57;82.82;101170.47;5088254;28;20207;-72
2023/05/14 03:00:28;;;;;;;6.90;6.20;;;;;;;9.43;82.54;101172.97;5085463;28;20255;-70
2023/05/14 03:02:54;;;;;;;7.13;6.47;;;;;;;9.33;83.34;101169.88;5083256;28;20216;-71
2023/05/14 03:05:22;;;;;;;7.73;6.90;;;;;;;9.24;83.17;101179.19;5080564;28;20594;-72
2023/05/14 03:07:50;;;;;;;8.20;7.43;;;;;;;9.18;84.22;101175.97;5080957;28;20196;-71
2023/05/14 03:10:16;;;;;;;8.70;7.80;;;;;;;9.17;84.46;101174.25;5087288;28;20224;-71
2023/05/14 03:12:43;;;;;;;8.23;7.53;;;;;;;9.14;85.45;101175.25;5086857;28;20199;-71
2023/05/14 03:15:10;;;;;;;8.80;7.87;;;;;;;9.10;85.15;101176.34;5081183;28;20690;-71
2023/05/14 03:17:37;;;;;;;8.60;7.80;;;;;;;9.09;86.21;101171.13;5085920;28;20227;-71
2023/05/14 03:20:04;;;;;;;9.17;8.27;;;;;;;9.08;86.54;101169.41;5087536;28;20224;-71
2023/05/14 03:22:32;;;;;;;8.47;7.57;;;;;;;9.06;86.77;101172.13;5086458;28;20596;-72
2023/05/14 03:24:58;;;;;;;7.90;7.20;;;;;;;9.04;87.23;101166.03;5084551;28;20671;-71
2023/05/14 03:27:25;;;;;;;7.57;6.87;;;;;;;9.02;86.57;101166.09;5087276;28;20200;-72
2023/05/14 03:29:51;;;;;;;8.40;7.33;;;;;;;9.02;87.57;101160.78;5091279;28;20216;-71
2023/05/14 03:32:18;;;;;;;8.00;7.20;;;;;;;9.00;86.90;101157.34;5085815;28;20204;-70
2023/05/14 03:34:44;;;;;;;7.97;6.90;;;;;;;8.99;87.12;101162.72;5086231;28;20234;-70
2023/05/14 03:37:11;;;;;;;8.90;7.10;;;;;;;8.96;87.16;101168.16;5085836;28;20235;-70
2023/05/14 03:39:38;;;;;;;8.57;7.70;;;;;;;8.93;87.21;101171.00;5077504;28;20236;-71
2023/05/14 03:42:05;;;;;;;7.70;6.93;;;;;;;8.90;87.40;101169.34;5087337;28;20207;-70
2023/05/14 03:44:31;;;;;;;9.03;8.13;;;;;;;8.89;87.58;101169.41;5080217;28;20208;-70
2023/05/14 03:46:58;;;;;;;8.27;7.13;;;;;;;8.90;87.86;101161.38;5085453;28;20196;-70
2023/05/14 03:49:25;;;;;;;8.90;8.10;;;;;;;8.90;88.62;101161.38;5088572;28;20230;-70
2023/05/14 03:51:51;;;;;;;8.10;7.30;;;;;;;8.92;88.81;101156.00;5086570;28;20224;-71
2023/05/14 03:54:18;;;;;;;9.00;7.43;;;;;;;8.93;88.26;101153.28;5084816;28;20215;-71
2023/05/14 03:56:45;;;;;;;8.37;7.57;;;;;;;8.94;89.20;101160.31;5081493;28;20236;-71
2023/05/14 03:59:12;;;;;;;8.23;7.43;;;;;;;8.95;89.25;101162.03;5084112;28;20232;-71
2023/05/14 04:01:38;;;;;;;8.47;7.57;;;;;;;8.94;89.09;101152.34;5082839;28;20203;-71
2023/05/14 04:04:05;;;;;;;8.63;7.83;;;;;;;8.96;89.31;101162.84;5086587;28;20204;-70
2023/05/14 04:06:32;;;;;;;8.50;7.67;;;;;;;8.97;89.58;101156.63;5085388;28;20377;-70
2023/05/14 04:08:59;;;;;;;10.37;8.27;;;;;;;8.98;90.19;101148.56;5084244;28;20710;-70
2023/05/14 04:11:25;;;;;;;8.67;7.83;;;;;;;8.99;89.69;101152.94;5089812;28;20203;-70
2023/05/14 04:13:53;;;;;;;8.70;7.80;;;;;;;9.01;90.53;101159.06;5079863;28;20405;-69
2023/05/14 04:16:19;;;;;;;8.80;8.00;;;;;;;9.03;90.57;101151.88;5077002;28;20203;-70
2023/05/14 04:18:46;;;;;;;8.70;7.90;;;;;;;9.06;90.46;101161.50;5081139;28;20224;-68
2023/05/14 04:21:12;;;;;;;8.30;7.37;;;;;;;9.09;90.62;101165.81;5076797;28;20203;-71
2023/05/14 04:23:39;;;;;;;9.67;7.73;;;;;;;9.09;91.09;101156.03;5081394;28;20427;-70
2023/05/14 04:26:05;;;;;;;12.77;9.63;;;;;;;9.12;90.52;101160.34;5081249;28;20203;-71
2023/05/14 04:28:32;;;;;;;9.43;8.33;;;;;;;9.15;91.45;101162.81;5083096;28;20203;-71
2023/05/14 04:31:00;;;;;;;8.93;8.00;;;;;;;9.18;91.72;101165.34;5085578;28;20201;-71
2023/05/14 04:33:26;;;;;;;9.77;8.80;;;;;;;9.20;90.88;101160.81;5087472;28;20286;-70
2023/05/14 04:35:53;;;;;;;9.30;8.40;;;;;;;9.23;91.70;101165.97;5079254;28;20207;-70
2023/05/14 04:38:19;;;;;;;9.03;8.20;;;;;;;9.24;91.31;101157.94;5076066;28;20281;-69
2023/05/14 04:40:46;;;;;;;9.53;8.53;;;;;;;9.27;91.18;101162.25;5084765;28;20208;-70
2023/05/14 04:43:12;;;;;;;9.10;8.23;;;;;;;9.27;91.61;101159.59;5084955;28;20211;-72
2023/05/14 04:45:39;;;;;;;11.27;8.63;;;;;;;9.28;91.33;101161.31;5080154;28;20213;-71
2023/05/14 04:48:07;;;;;;;9.77;8.10;;;;;;;9.27;91.52;101164.91;5082423;28;20200;-70
2023/05/14 04:50:34;;;;;;;8.80;7.93;;;;;;;9.23;91.32;101161.53;5079745;28;20228;-71
2023/05/14 04:53:02;;;;;;;9.70;8.00;;;;;;;9.24;91.99;101160.59;5088604;28;20196;-69
2023/05/14 04:55:28;;;;;;;8.57;7.77;;;;;;;9.24;92.25;101165.03;5093231;28;20208;-70
2023/05/14 04:57:55;;;;;;;9.60;8.70;;;;;;;9.25;93.11;101159.66;5087340;28;20232;-71
2023/05/14 05:00:22;;;;;;;9.50;8.60;;;;;;;9.27;92.96;101159.59;5081362;28;20231;-70
2023/05/14 05:02:48;;;;;;;10.13;8.93;;;;;;;9.31;93.99;101161.16;5086593;28;20422;-70
2023/05/14 05:05:16;;;;;;;9.93;9.03;;;;;;;9.34;93.89;101158.31;5089618;28;20212;-71
2023/05/14 05:07:42;;;;;;;10.57;8.93;;;;;;;9.37;94.23;101156.38;5085732;28;20208;-70
2023/05/14 05:10:09;;;;;;;10.43;9.10;;;;;;;9.42;94.97;101157.94;5086663;28;20228;-72
2023/05/14 05:12:36;;;;;;;9.47;8.57;;;;;;;9.49;94.60;101162.03;5085421;28;20207;-70
2023/05/14 05:15:02;;;;;;;10.63;9.30;;;;;;;9.55;94.89;101162.56;5086133;28;20215;-70
2023/05/14 05:17:29;;;;;;;10.37;9.00;;;;;;;9.63;95.99;101156.84;5089189;28;20224;-70
2023/05/14 05:19:56;;;;;;;10.03;9.13;;;;;;;9.67;96.21;101161.91;5091876;28;20224;-69
2023/05/14 05:22:24;;;;;;;9.83;8.87;;;;;;;9.74;96.61;101155.34;5086517;28;20208;-70
2023/05/14 05:24:50;;;;;;;10.33;9.33;;;;;;;9.82;97.38;101152.31;5087113;28;20327;-70
2023/05/14 05:27:17;;;;;;;10.80;9.80;;;;;;;9.91;97.10;101157.13;5079501;28;20208;-71
2023/05/14 05:29:43;;;;;;;10.47;9.43;;;;;;;10.00;97.50;101153.16;5085466;28;20216;-69
2023/05/14 05:32:10;;;;;;;10.43;9.43;;;;;;;10.08;98.19;101159.75;5082237;28;20200;-71
2023/05/14 05:34:36;;;;;;;10.50;9.33;;;;;;;10.18;98.12;101157.50;5088004;28;20703;-70
2023/05/14 05:37:04;;;;;;;10.43;9.33;;;;;;;10.29;98.71;101165.78;5089227;28;20225;-70
2023/05/14 05:39:33;;;;;;;10.40;9.40;;;;;;;10.41;99.11;101162.44;5086402;28;20319;-69
2023/05/14 05:42:00;;;;;;;10.60;9.60;;;;;;;10.54;99.51;101161.78;5086010;28;20204;-67
2023/05/14 05:44:26;;;;;;;9.67;8.77;;;;;;;10.64;99.09;101149.66;5085186;28;20291;-69
2023/05/14 05:46:54;;;;;;;10.17;9.10;;;;;;;10.75;98.31;101147.25;5078142;28;20291;-71
2023/05/14 05:49:21;;;;;;;10.70;9.70;;;;;;;10.90;98.55;101150.88;5086103;28;20316;-71
2023/05/14 05:51:47;;;;;;;10.37;9.27;;;;;;;11.05;98.49;101145.53;5086851;28;20203;-70
2023/05/14 05:54:14;;;;;;;9.83;8.83;;;;;;;11.23;98.09;101148.09;5083785;28;20210;-71
2023/05/14 05:56:42;;;;;;;10.00;9.07;;;;;;;11.41;97.54;101149.69;5086398;28;20202;-70
2023/05/14 05:59:08;;;;;;;10.97;8.50;;;;;;;11.57;96.54;101147.81;5085909;28;20589;-71
2023/05/14 06:01:35;;;;;;;9.03;8.13;;;;;;;11.72;95.32;101151.38;5080114;28;20221;-71
2023/05/14 06:04:03;;;;;;;9.10;8.20;;;;;;;11.89;94.11;101153.06;5079539;28;20209;-68
2023/05/14 06:06:31;;;;;;;9.17;8.27;;;;;;;12.03;92.82;101153.06;5086784;28;20210;-70
2023/05/14 06:08:58;;;;;;;9.10;8.20;;;;;;;12.21;91.72;101157.28;5082557;28;20240;-72
2023/05/14 06:11:24;;;;;;;9.37;8.30;;;;;;;12.39;90.73;101161.47;5084480;28;20215;-71
2023/05/14 06:13:52;;;;;;;8.37;7.57;;;;;;;12.58;89.87;101158.50;5084974;28;20204;-70
2023/05/14 06:16:18;;;;;;;11.17;8.50;;;;;;;12.77;89.10;101156.34;5082877;28;20212;-70
2023/05/14 06:18:45;;;;;;;9.27;8.27;;;;;;;12.96;87.60;101163.19;5086583;28;20914;-71
2023/05/14 06:21:12;;;;;;;8.20;7.40;;;;;;;13.15;86.21;101163.72;5083653;28;20285;-71
2023/05/14 06:23:38;;;;;;;7.87;7.17;;;;;;;13.33;85.67;101156.31;5083776;28;20227;-71
2023/05/14 06:26:05;;;;;;;7.87;7.10;;;;;;;13.45;83.86;101159.00;5088453;28;20196;-70
2023/05/14 06:28:31;;;;;;;7.40;6.77;;;;;;;13.52;82.79;101156.78;5086162;28;20192;-71
2023/05/14 06:30:59;;;;;;;8.17;7.47;;;;;;;13.63;82.40;101161.41;5088214;28;20204;-71
2023/05/14 06:33:29;;;;;;;7.87;7.07;;;;;;;13.78;81.51;101160.38;5086154;28;20215;-68
2023/05/14 06:35:56;;;;;;;8.10;7.30;;;;;;;13.88;81.13;101158.78;5088379;28;20214;-71
2023/05/14 06:38:22;;;;;;;8.67;7.87;;;;;;;13.98;79.95;101156.31;5085157;28;20224;-70
2023/05/14 06:40:48;;;;;;;7.73;6.93;;;;;;;14.04;79.10;101150.53;5088175;28;20219;-71
2023/05/14 06:43:15;;;;;;;8.07;6.80;;;;;;;14.04;78.83;101148.72;5086658;28;20200;-70
2023/05/14 06:45:41;;;;;;;7.67;6.97;;;;;;;14.04;78.19;101143.34;5086989;28;20227;-71
2023/05/14 06:48:09;;;;;;;8.07;7.37;;;;;;;14.05;78.13;101146.88;5086822;28;20615;-70
2023/05/14 06:50:36;;;;;;;7.87;7.07;;;;;;;14.04;78.59;101143.34;5082293;28;20252;-70
2023/05/14 06:53:02;;;;;;;7.73;6.93;;;;;;;14.04;78.37;101145.19;5086326;28;20204;-70
2023/05/14 06:55:29;;;;;;;7.63;6.87;;;;;;;14.07;78.78;101144.97;5087252;28;20243;-68
2023/05/14 06:57:55;;;;;;;8.07;7.37;;;;;;;14.16;79.53;101152.34;5084060;28;20852;-70
2023/05/14 07:00:22;;;;;;;7.83;7.13;;;;;;;14.27;78.77;101147.09;5083399;28;20720;-69
2023/05/14 07:02:48;;;;;;;8.13;7.37;;;;;;;14.40;78.93;101144.41;5086176;28;20212;-70
2023/05/14 07:05:16;;;;;;;8.17;7.37;;;;;;;14.55;78.92;101141.50;5084110;28;20207;-71
2023/05/14 07:07:43;;;;;;;8.20;7.50;;;;;;;14.70;77.42;101139.53;5082935;28;20207;-70
2023/05/14 07:10:10;;;;;;;8.27;6.70;;;;;;;14.84;76.71;101147.44;5080338;28;20592;-70
2023/05/14 07:12:36;;;;;;;8.20;7.50;;;;;;;14.97;76.24;101144.72;5085297;28;20204;-71
2023/05/14 07:15:03;;;;;;;8.83;7.30;;;;;;;15.11;75.16;101141.84;5088130;28;20561;-71
2023/05/14 07:17:29;;;;;;;7.70;7.00;;;;;;;15.19;74.22;101139.47;5076874;28;20229;-70
2023/05/14 07:19:56;;;;;;;8.47;7.33;;;;;;;15.31;74.11;101134.16;5086502;28;20234;-70
2023/05/14 07:22:24;;;;;;;7.73;7.03;;;;;;;15.44;74.13;101137.59;5084602;28;20296;-71
2023/05/14 07:24:50;;;;;;;7.37;6.67;;;;;;;15.57;73.58;101127.69;5078970;28;20209;-69
2023/05/14 07:27:16;;;;;;;7.43;6.73;;;;;;;15.72;73.18;101126.50;5080827;28;20202;-71
2023/05/14 07:29:43;;;;;;;7.13;6.53;;;;;;;15.85;72.33;101121.91;5084788;28;20224;-70
2023/05/14 07:32:10;;;;;;;7.67;6.97;;;;;;;16.01;71.60;101123.38;5087199;28;20202;-70
2023/05/14 07:34:36;;;;;;;7.07;6.30;;;;;;;16.15;71.56;101123.13;5085733;28;20209;-70
2023/05/14 07:37:03;;;;;;;8.17;7.30;;;;;;;16.31;71.11;101123.63;5089205;28;20671;-70
2023/05/14 07:39:31;;;;;;;7.80;7.10;;;;;;;16.47;71.27;101118.75;5084296;28;21798;-70
2023/05/14 07:41:57;;;;;;;8.30;6.60;;;;;;;16.65;70.30;101114.63;5084775;28;20680;-70
2023/05/14 07:44:24;;;;;;;8.57;7.20;;;;;;;16.83;69.53;101119.47;5080301;28;20727;-71
2023/05/14 07:46:50;;;;;;;7.50;6.80;;;;;;;16.99;69.55;101119.91;5086089;28;20205;-71
2023/05/14 07:49:16;;;;;;;7.40;6.67;;;;;;;17.14;69.36;101113.25;5080535;28;20224;-70
2023/05/14 07:51:43;;;;;;;7.10;6.50;;;;;;;17.30;68.89;101110.97;5084924;28;20217;-71
2023/05/14 07:54:10;;;;;;;7.53;6.33;;;;;;;17.43;67.65;101104.56;5086623;28;20687;-71
2023/05/14 07:56:37;;;;;;;6.93;6.30;;;;;;;17.51;66.62;101110.16;5080024;28;20706;-69
2023/05/14 07:59:05;;;;;;;7.23;6.50;;;;;;;17.62;66.13;101096.63;5084430;28;20585;-70
2023/05/14 08:01:32;;;;;;;6.50;5.90;;;;;;;17.73;65.35;101104.69;5083559;28;20208;-71
2023/05/14 08:03:58;;;;;;;6.70;6.10;;;;;;;17.88;65.00;101102.50;5083886;28;20820;-71
2023/05/14 08:06:26;;;;;;;6.63;6.03;;;;;;;17.99;64.67;101095.16;5084868;28;20747;-71
2023/05/14 08:08:52;;;;;;;7.27;6.63;;;;;;;18.12;63.40;101102.16;5086889;28;20304;-71
2023/05/14 08:11:20;;;;;;;7.07;6.43;;;;;;;18.16;62.55;101093.69;5085774;28;20218;-67
2023/05/14 08:13:48;;;;;;;6.10;5.60;;;;;;;18.17;62.75;101100.78;5081329;28;20215;-70
2023/05/14 08:16:14;;;;;;;7.37;6.70;;;;;;;18.15;62.38;101102.75;5087097;28;20209;-68
2023/05/14 08:18:40;;;;;;;7.77;7.07;;;;;;;18.13;62.89;101101.19;5086408;28;21408;-70
2023/05/14 08:21:07;;;;;;;8.00;7.27;;;;;;;18.10;62.76;101106.84;5091484;28;20599;-69
2023/05/14 08:23:33;;;;;;;7.43;6.73;;;;;;;18.07;63.03;101108.00;5081697;28;20232;-68
2023/05/14 08:26:00;;;;;;;8.23;7.00;;;;;;;18.07;63.36;101107.13;5087624;28;20206;-71
2023/05/14 08:28:34;;;;;;;7.83;7.10;;;;;;;18.05;62.87;101104.56;5086732;28;20210;-71
2023/05/14 08:31:01;;;;;;;8.63;7.73;;;;;;;18.02;62.93;101103.00;5090386;28;20656;-70
2023/05/14 08:33:28;;;;;;;8.27;7.47;;;;;;;18.07;63.62;101090.97;5089403;28;20243;-70
2023/05/14 08:35:55;;;;;;;7.23;6.53;;;;;;;18.09;63.40;101091.69;5089222;28;20207;-71
2023/05/14 08:38:21;;;;;;;7.53;6.93;;;;;;;18.16;62.92;101096.38;5086809;28;20286;-70
2023/05/14 08:40:49;;;;;;;8.53;7.00;;;;;;;18.26;63.03;101088.34;5089363;28;20223;-69
2023/05/14 08:43:23;;;;;;;7.53;6.60;;;;;;;18.36;62.29;101082.00;5089166;28;20211;-69
2023/05/14 08:45:54;;;;;;;5.87;5.27;;;;;;;18.46;61.75;101073.91;5088772;28;20207;-71
2023/05/14 08:48:22;;;;;;;6.77;6.17;;;;;;;18.59;61.23;101077.28;5087883;28;20283;-70
2023/05/14 08:50:49;;;;;;;4.40;4.00;;;;;;;18.69;60.25;101067.34;5090055;28;20204;-70
2023/05/14 08:53:16;;;;;;;6.73;3.90;;;;;;;18.80;59.23;101076.34;5096535;28;20228;-69
2023/05/14 08:55:43;;;;;;;4.37;4.07;;;;;;;18.91;58.52;101068.94;5084383;28;20214;-71
2023/05/14 08:58:10;;;;;;;5.17;3.60;;;;;;;19.02;57.47;101067.94;5085848;28;20721;-70
2023/05/14 09:00:36;;;;;;;4.13;3.33;;;;;;;19.10;56.11;101061.84;5086989;28;20222;-68
2023/05/14 09:03:05;;;;;;;3.80;3.50;;;;;;;19.22;55.71;101056.16;5089098;28;20198;-68
2023/05/14 09:05:33;;;;;;;4.20;3.80;;;;;;;19.31;55.23;101052.63;5078033;28;20274;-67
2023/05/14 09:08:00;;;;;;;4.03;3.70;;;;;;;19.36;54.61;101052.16;5085685;28;20406;-71
2023/05/14 09:10:27;;;;;;;3.27;2.97;;;;;;;19.37;54.30;101049.31;5079949;28;20260;-72
2023/05/14 09:12:53;;;;;;;3.37;2.90;;;;;;;19.43;54.21;101048.75;5086563;28;20211;-72
2023/05/14 09:15:20;;;;;;;3.27;3.07;;;;;;;19.48;53.88;101048.31;5085142;28;20214;-71
2023/05/14 09:17:47;;;;;;;3.30;3.00;;;;;;;19.57;53.52;101038.50;5086523;28;20205;-70
2023/05/14 09:20:15;;;;;;;3.40;3.10;;;;;;;19.61;52.92;101048.88;5083823;28;20229;-70
2023/05/14 09:22:42;;;;;;;3.43;3.13;;;;;;;19.67;52.37;101042.06;5088276;28;20613;-71
2023/05/14 09:25:10;;;;;;;4.47;3.83;;;;;;;19.74;53.34;101035.91;5086966;28;20197;-69
2023/05/14 09:27:38;;;;;;;3.77;3.40;;;;;;;19.87;53.10;101035.59;5082922;28;20203;-72
2023/05/14 09:30:09;;;;;;;4.40;3.90;;;;;;;19.95;52.04;101043.81;5075829;28;20750;-71
2023/05/14 09:32:37;;;;;;;4.53;3.40;;;;;;;20.00;51.83;101049.63;5081021;28;20207;-71
2023/05/14 09:35:13;;;;;;;4.20;3.80;;;;;;;20.06;51.28;101035.50;5075075;28;20315;-72
2023/05/14 09:37:43;;;;;;;4.27;3.20;;;;;;;20.11;51.05;101030.50;5076247;28;20240;-71
2023/05/14 09:40:10;;;;;;;3.40;3.10;;;;;;;20.13;49.60;101024.94;5064405;28;20346;-69
2023/05/14 09:42:37;;;;;;;3.47;3.17;;;;;;;20.19;50.03;101020.81;5066854;28;20260;-71
2023/05/14 09:45:04;;;;;;;4.20;3.77;;;;;;;20.27;50.88;101018.19;5064590;28;20202;-69
2023/05/14 09:47:31;;;;;;;3.40;3.10;;;;;;;20.43;50.84;101018.41;5080462;28;20294;-70
2023/05/14 09:49:57;;;;;;;3.70;3.40;;;;;;;20.53;49.75;101021.91;5078530;28;20243;-69
2023/05/14 09:52:25;;;;;;;4.63;3.70;;;;;;;20.60;49.77;101024.88;5085561;28;20211;-67
2023/05/14 09:54:53;;;;;;;3.97;3.58;;;;;;;20.68;49.64;101017.69;5083554;28;20430;-70
2023/05/14 09:57:19;;;;;;;4.15;3.72;;;;;;;20.75;48.80;101013.38;5083438;28;20206;-71
2023/05/14 09:59:46;;;;;;;4.57;4.10;;;;;;;20.82;48.78;101007.31;5084165;28;20709;-70
2023/05/14 10:02:21;;;;;;;4.72;3.85;;;;;;;20.90;48.12;101004.69;5074051;28;20767;-71
2023/05/14 10:04:48;;;;;;;4.15;3.85;;;;;;;20.94;48.28;101004.22;5080557;28;20218;-70
2023/05/14 10:07:17;;;;;;;4.22;3.80;;;;;;;20.96;47.46;100995.97;5075826;28;20200;-70
2023/05/14 10:09:45;;;;;;;5.03;4.30;;;;;;;20.98;47.75;100996.63;5075694;28;20216;-71
2023/05/14 10:12:16;;;;;;;5.43;4.40;;;;;;;21.08;48.30;100997.41;5079816;28;20246;-70
2023/05/14 10:14:48;;;;;;;4.68;4.22;;;;;;;21.15;47.88;100987.63;5082594;28;20203;-70
2023/05/14 10:17:17;;;;;;;4.07;3.55;;;;;;;21.22;46.74;100993.31;5072139;28;20581;-72
2023/05/14 10:19:50;;;;;;;3.83;3.00;;;;;;;21.28;45.64;100988.13;5075247;28;20727;-67
2023/05/14 10:22:21;;;;;;;6.93;4.65;;;;;;;21.32;44.38;100989.47;5081447;28;20205;-68
2023/05/14 10:24:51;;;;;;;4.93;3.55;;;;;;;21.34;43.89;100982.06;5084825;28;20200;-72
2023/05/14 10:27:20;;;;;;;3.92;3.55;;;;;;;21.35;44.07;100974.78;5081617;28;20192;-71
2023/05/14 10:29:53;;;;;;;6.97;4.07;;;;;;;21.37;44.57;100987.16;5082874;28;20244;-70
2023/05/14 10:32:20;;;;;;;4.75;3.78;;;;;;;21.43;43.64;100977.56;5078236;28;20587;-69
2023/05/14 10:34:47;;;;;;;4.88;4.30;;;;;;;21.44;43.76;100976.53;5083031;28;20211;-71
2023/05/14 10:37:16;;;;;;;5.25;4.03;;;;;;;21.50;44.47;100985.91;5085651;28;20203;-71
2023/05/14 10:39:48;;;;;;;4.13;3.72;;;;;;;21.52;43.96;100973.88;5079324;28;20228;-69
2023/05/14 10:42:17;;;;;;;4.35;3.88;;;;;;;21.54;43.63;100968.28;5079104;28;20208;-69
2023/05/14 10:45:06;;;;;;;4.63;3.80;;;;;;;21.56;44.04;100961.72;5080048;28;20200;-69
2023/05/14 10:47:33;;;;;;;5.63;3.70;;;;;;;21.59;44.06;100968.66;5079897;28;20315;-68
2023/05/14 10:50:01;;;;;;;5.15;3.72;;;;;;;21.65;43.39;100973.47;5082702;28;20220;-70
2023/05/14 10:52:29;;;;;;;4.65;3.50;;;;;;;21.68;43.13;100971.25;5082194;28;20591;-69
2023/05/14 10:54:57;;;;;;;4.25;3.85;;;;;;;21.69;41.28;100964.81;5082789;28;20224;-69
2023/05/14 10:57:26;;;;;;;3.55;3.25;;;;;;;21.69;41.45;100956.69;5084606;28;20208;-70
2023/05/14 10:59:54;;;;;;;4.88;3.67;;;;;;;21.76;41.62;100962.31;5078050;28;20254;-71
2023/05/14 11:02:24;;;;;;;4.10;3.70;;;;;;;21.80;41.33;100963.72;5080233;28;20204;-70
2023/05/14 11:04:56;;;;;;;5.32;3.85;;;;;;;21.85;41.55;100964.09;5085922;28;20204;-70
2023/05/14 11:07:27;;;;;;;4.93;3.20;;;;;;;21.88;40.59;100960.16;5082410;28;20212;-69
2023/05/14 11:09:56;;;;;;;4.10;3.63;;;;;;;21.86;40.12;100954.91;5084017;28;20224;-70
2023/05/14 11:12:23;;;;;;;6.10;3.50;;;;;;;21.86;40.87;100954.91;5083408;28;20201;-68
2023/05/14 11:14:50;;;;;;;5.13;3.70;;;;;;;21.94;41.67;100951.38;5086697;28;20672;-69
2023/05/14 11:17:18;;;;;;;3.50;3.20;;;;;;;22.04;41.24;100941.28;5080293;28;20212;-67
2023/05/14 11:19:45;;;;;;;3.67;3.33;;;;;;;22.11;41.28;100942.34;5082539;28;20242;-68
2023/05/14 11:22:13;;;;;;;6.63;4.00;;;;;;;22.15;41.01;100949.13;5079905;28;20211;-68
2023/05/14 11:24:40;;;;;;;3.60;3.30;;;;;;;22.17;41.17;100947.09;5080247;28;20207;-68
2023/05/14 11:27:07;;;;;;;4.30;3.90;;;;;;;22.17;39.82;100942.53;5084264;28;20231;-70